»·PEaware :: N232Z KSBA-KSBD

N232Z :: KSBA-KSBD

FLIGHT INFORMATION

Flight Status: Arrived
Operator: Privately registered:
United States
More flights under this callsign
Pilot: Merv A. (1555)
Aircraft: Unknown
(LEG2)
More flights by this aircraft type
Origin: KSBA Santa Barbara Mun
United States
Destination: KSBD San Bernardino Intl
United States
More flights between these airports :: More routes between these airports
Route: +
File this flight plan on PilotEdge
Remarks:
Altitude:
(Current/Filed)
0ft
Speed:
(Current/Filed)
0kts
Departed: 31-Aug-19 04:21 PM
Arrived: 31-Aug-19 05:06 PM
Distance/Time
Traveled:
131nm/0:45
Distance/Time
To Go:
Arrived

Flight Plot

Page will automatically refresh every two minutes.

Flight plan parsing failed; only flown route is shown


Map Options




Map Legend


Flown Route
Filed Route
Departure Airport
Arrival Airport
Navaid (VOR, NDB)
Fix

Horizontal Profiles

Position Reports

Time Latitude Longitude Heading Altitude Ground
Speed
31-Aug-19 16:12 34.432740 -119.835953 249 13ft 0kts
31-Aug-19 16:13 34.432739 -119.835955 249 13ft 0kts
31-Aug-19 16:14 34.432738 -119.835958 249 13ft 0kts
31-Aug-19 16:15 34.432682 -119.836007 180 13ft 4kts
31-Aug-19 16:16 34.432178 -119.835776 159 13ft 1kts
31-Aug-19 16:17 34.431241 -119.837953 248 13ft 10kts
31-Aug-19 16:18 34.430843 -119.839860 253 13ft 0kts
31-Aug-19 16:19 34.430812 -119.839983 253 13ft 5kts
31-Aug-19 16:20 34.421992 -119.837504 167 79ft 112kts
31-Aug-19 16:21 34.387830 -119.825056 166 1372ft 148kts
31-Aug-19 16:22 34.372571 -119.784360 90 2842ft 153kts
31-Aug-19 16:23 34.359268 -119.731559 105 3909ft 171kts
31-Aug-19 16:24 34.346403 -119.676949 105 5079ft 174kts
31-Aug-19 16:25 34.332621 -119.617061 105 5505ft 196kts
31-Aug-19 16:26 34.317518 -119.550797 105 5510ft 210kts
31-Aug-19 16:27 34.302324 -119.483981 105 5510ft 212kts
31-Aug-19 16:28 34.286292 -119.415125 108 5518ft 212kts
31-Aug-19 16:29 34.265364 -119.348409 111 5512ft 210kts
31-Aug-19 16:30 34.247550 -119.282512 91 5512ft 205kts
31-Aug-19 16:31 34.248136 -119.213675 88 5501ft 208kts
31-Aug-19 16:32 34.246924 -119.143844 94 5504ft 206kts
31-Aug-19 16:33 34.241423 -119.074730 95 5503ft 207kts
31-Aug-19 16:34 34.236499 -119.005615 91 5505ft 204kts
31-Aug-19 16:35 34.234707 -118.937305 91 5503ft 205kts
31-Aug-19 16:36 34.233021 -118.868804 91 5502ft 202kts
31-Aug-19 16:37 34.231332 -118.801253 91 5502ft 201kts
31-Aug-19 16:38 34.229672 -118.733864 91 5523ft 200kts
31-Aug-19 16:39 34.228022 -118.667949 91 5538ft 200kts
31-Aug-19 16:40 34.226359 -118.600478 91 5521ft 201kts
31-Aug-19 16:41 34.224701 -118.532660 91 5512ft 203kts
31-Aug-19 16:42 34.222537 -118.464910 97 5502ft 206kts
31-Aug-19 16:43 34.209906 -118.397588 104 5532ft 207kts
31-Aug-19 16:44 34.195971 -118.330178 104 5515ft 207kts
31-Aug-19 16:45 34.182086 -118.262982 104 5516ft 207kts
31-Aug-19 16:46 34.168218 -118.195733 104 5516ft 208kts
31-Aug-19 16:47 34.154186 -118.128015 104 5520ft 206kts
31-Aug-19 16:48 34.140214 -118.060606 104 5520ft 209kts
31-Aug-19 16:49 34.122509 -117.996971 119 5515ft 208kts
31-Aug-19 16:50 34.093186 -117.937255 122 5514ft 208kts
31-Aug-19 16:51 34.063462 -117.877591 122 5516ft 206kts
31-Aug-19 16:52 34.034337 -117.818994 122 5520ft 202kts
31-Aug-19 16:53 34.006408 -117.760541 114 5521ft 201kts
31-Aug-19 16:54 33.992215 -117.696345 102 5456ft 198kts
31-Aug-19 16:55 33.980106 -117.628366 101 4876ft 212kts
31-Aug-19 16:56 33.979495 -117.557430 89 4377ft 212kts
31-Aug-19 16:57 33.980256 -117.486463 89 3885ft 211kts
31-Aug-19 16:58 33.984197 -117.416011 68 3379ft 210kts
31-Aug-19 16:59 34.011153 -117.355544 57 2495ft 197kts
31-Aug-19 17:00 34.037197 -117.305499 57 2092ft 151kts
31-Aug-19 17:01 34.061324 -117.270967 30 1950ft 129kts
31-Aug-19 17:02 34.081016 -117.237104 69 2040ft 127kts
31-Aug-19 17:03 34.091329 -117.198673 70 1781ft 113kts
31-Aug-19 17:04 34.103442 -117.206857 257 1368ft 91kts
31-Aug-19 17:05 34.097476 -117.227743 259 1122ft 12kts
31-Aug-19 17:06 34.098275 -117.227631 41 1122ft 0kts
31-Aug-19 17:07 34.098331 -117.227572 40 1122ft 4kts
31-Aug-19 17:08 34.100515 -117.225190 67 1122ft 17kts
31-Aug-19 17:09 34.102137 -117.225152 89 1122ft 0kts
31-Aug-19 17:10 34.102137 -117.225152 89 1122ft 0kts

Navigation Log

Ident Type
Flight plan parsing failed, navigation log unavailable